createdAt,value
2017-03-30T00:00:22.308Z,10.70
2017-03-30T00:01:20.209Z,10.70
2017-03-30T00:02:17.863Z,10.70
2017-03-30T00:03:15.662Z,10.70
2017-03-30T00:04:13.341Z,10.70
2017-03-30T00:05:11.379Z,10.60
2017-03-30T00:06:09.071Z,10.50
2017-03-30T00:07:06.688Z,10.40
2017-03-30T00:08:04.313Z,10.30
2017-03-30T00:09:02.000Z,10.20
2017-03-30T00:10:00.475Z,10.20
2017-03-30T00:10:59.545Z,10.00
2017-03-30T00:11:57.823Z,10.00
2017-03-30T00:12:55.443Z,10.00
2017-03-30T00:13:53.238Z,10.10
2017-03-30T00:14:50.928Z,10.20
2017-03-30T00:15:48.651Z,10.30
2017-03-30T00:16:46.353Z,10.20
2017-03-30T00:17:44.159Z,10.30
2017-03-30T00:18:41.835Z,10.30
2017-03-30T00:19:39.455Z,10.40
2017-03-30T00:20:37.401Z,10.40
2017-03-30T00:21:35.044Z,10.20
2017-03-30T00:22:32.806Z,10.10
2017-03-30T00:23:30.548Z,10.00
2017-03-30T00:24:28.201Z,10.00
2017-03-30T00:25:26.124Z,9.90
2017-03-30T00:26:23.755Z,9.70
2017-03-30T00:27:21.427Z,9.70
2017-03-30T00:28:19.084Z,9.80
2017-03-30T00:29:16.808Z,10.00
2017-03-30T00:30:15.568Z,9.90
2017-03-30T00:31:13.246Z,9.90
2017-03-30T00:32:11.002Z,10.00
2017-03-30T00:33:08.659Z,10.00
2017-03-30T00:34:06.257Z,9.80
2017-03-30T00:35:04.432Z,9.70
2017-03-30T00:36:04.883Z,9.70
2017-03-30T00:37:03.160Z,9.80
2017-03-30T00:38:00.803Z,9.80
2017-03-30T00:38:58.567Z,10.00
2017-03-30T00:39:56.207Z,10.00
2017-03-30T00:40:54.095Z,10.00
2017-03-30T00:41:51.727Z,10.00
2017-03-30T00:42:49.444Z,10.00
2017-03-30T00:43:47.197Z,9.90
2017-03-30T00:44:45.020Z,9.80
2017-03-30T00:45:43.576Z,9.80
2017-03-30T00:46:41.203Z,9.70
2017-03-30T00:47:38.863Z,9.50
2017-03-30T00:48:36.711Z,9.50
2017-03-30T00:49:34.399Z,9.50
2017-03-30T00:50:32.207Z,9.40
2017-03-30T00:51:29.796Z,9.40
2017-03-30T00:52:27.522Z,9.40
2017-03-30T00:53:25.354Z,9.40
2017-03-30T00:54:23.124Z,9.50
2017-03-30T00:55:21.688Z,9.50
2017-03-30T00:56:20.096Z,9.50
2017-03-30T00:57:18.690Z,9.50
2017-03-30T00:58:16.392Z,9.70
2017-03-30T00:59:14.880Z,9.60
2017-03-30T01:00:12.659Z,9.30
2017-03-30T01:01:10.344Z,9.20
2017-03-30T01:02:07.977Z,9.20
2017-03-30T01:03:05.683Z,9.20
2017-03-30T01:04:03.350Z,9.20
2017-03-30T01:05:00.988Z,9.30
2017-03-30T01:05:59.314Z,9.20
2017-03-30T01:06:57.107Z,9.30
2017-03-30T01:07:55.576Z,9.40
2017-03-30T01:08:53.210Z,9.30
2017-03-30T01:09:50.911Z,9.30
2017-03-30T01:10:48.596Z,9.30
2017-03-30T01:11:46.494Z,9.40
2017-03-30T01:12:44.372Z,9.50
2017-03-30T01:13:41.963Z,9.60
2017-03-30T01:14:39.602Z,9.60
2017-03-30T01:15:37.520Z,9.70
2017-03-30T01:16:35.175Z,9.80
2017-03-30T01:17:32.822Z,9.70
2017-03-30T01:18:30.648Z,9.70
2017-03-30T01:19:28.292Z,9.70
2017-03-30T01:20:26.003Z,9.70
2017-03-30T01:21:23.668Z,9.70
2017-03-30T01:22:21.364Z,9.60
2017-03-30T01:23:19.271Z,9.50
2017-03-30T01:24:16.903Z,9.50
2017-03-30T01:25:14.838Z,9.50
2017-03-30T01:26:12.877Z,9.50
2017-03-30T01:27:13.600Z,9.50
2017-03-30T01:28:11.232Z,9.60
2017-03-30T01:29:08.940Z,9.70
2017-03-30T01:30:07.248Z,9.70
2017-03-30T01:31:04.888Z,9.80
2017-03-30T01:32:02.605Z,9.80
2017-03-30T01:33:00.229Z,9.70
2017-03-30T01:33:57.837Z,9.80
2017-03-30T01:34:55.648Z,9.60
2017-03-30T01:35:53.771Z,9.60
2017-03-30T01:36:51.435Z,9.60
2017-03-30T01:37:49.048Z,9.70
2017-03-30T01:38:46.659Z,9.70
2017-03-30T01:39:44.324Z,9.70
2017-03-30T01:40:42.044Z,9.70
2017-03-30T01:41:39.691Z,9.70
2017-03-30T01:42:37.403Z,9.70
2017-03-30T01:43:35.012Z,9.70
2017-03-30T01:44:32.720Z,9.80
2017-03-30T01:45:31.108Z,9.90
2017-03-30T01:46:29.527Z,10.00
2017-03-30T01:47:27.225Z,9.90
2017-03-30T01:48:24.908Z,9.90
2017-03-30T01:49:22.789Z,9.90
2017-03-30T01:50:20.564Z,9.90
2017-03-30T01:51:18.200Z,9.90
2017-03-30T01:52:15.843Z,9.90
2017-03-30T01:53:14.000Z,9.90
2017-03-30T01:54:11.723Z,9.90
2017-03-30T01:55:09.714Z,9.90
2017-03-30T01:56:07.540Z,9.90
2017-03-30T01:57:05.377Z,10.00
2017-03-30T01:58:03.116Z,10.00
2017-03-30T01:59:00.884Z,9.90
2017-03-30T01:59:58.692Z,9.80
2017-03-30T02:00:56.781Z,9.70
2017-03-30T02:01:55.505Z,9.60
2017-03-30T02:02:53.311Z,9.60
2017-03-30T02:03:50.920Z,9.60
2017-03-30T02:04:48.684Z,9.70
2017-03-30T02:05:47.013Z,9.70
2017-03-30T02:06:45.708Z,9.80
2017-03-30T02:07:43.840Z,9.80
2017-03-30T02:08:41.463Z,9.90
2017-03-30T02:09:39.300Z,9.80
2017-03-30T02:10:37.086Z,9.70
2017-03-30T02:11:35.592Z,9.70
2017-03-30T02:12:33.823Z,9.70
2017-03-30T02:13:31.517Z,9.60
2017-03-30T02:14:29.169Z,9.60
2017-03-30T02:15:26.839Z,9.60
2017-03-30T02:16:24.460Z,9.70
2017-03-30T02:17:22.351Z,9.70
2017-03-30T02:18:20.008Z,9.70
2017-03-30T02:19:17.643Z,9.60
2017-03-30T02:20:15.790Z,9.70
2017-03-30T02:21:14.108Z,9.80
2017-03-30T02:22:12.023Z,9.80
2017-03-30T02:23:13.317Z,9.80
2017-03-30T02:24:11.135Z,9.70
2017-03-30T02:25:08.872Z,9.70
2017-03-30T02:26:06.571Z,9.70
2017-03-30T02:27:04.200Z,9.70
2017-03-30T02:28:01.840Z,9.60
2017-03-30T02:28:59.460Z,9.70
2017-03-30T02:29:57.196Z,9.70
2017-03-30T02:30:55.091Z,9.70
2017-03-30T02:31:53.420Z,9.80
2017-03-30T02:32:51.216Z,9.70
2017-03-30T02:33:49.036Z,9.70
2017-03-30T02:34:46.715Z,9.70
2017-03-30T02:35:44.436Z,9.60
2017-03-30T02:36:42.271Z,9.50
2017-03-30T02:38:10.975Z,9.50
2017-03-30T02:39:10.585Z,9.50
2017-03-30T02:40:08.584Z,9.30
2017-03-30T02:41:06.685Z,9.20
2017-03-30T02:42:04.504Z,9.00
2017-03-30T02:47:14.116Z,9.00
2017-03-30T02:48:11.923Z,9.00
2017-03-30T02:49:09.585Z,8.70
2017-03-30T02:51:33.988Z,8.70
2017-03-30T02:52:31.644Z,8.80
2017-03-30T02:53:29.260Z,8.80
2017-03-30T02:55:36.359Z,8.80
2017-03-30T02:56:33.959Z,8.70
2017-03-30T02:57:31.716Z,8.70
2017-03-30T02:58:30.083Z,8.70
2017-03-30T02:59:27.720Z,8.80
2017-03-30T03:00:25.485Z,8.90
2017-03-30T03:01:23.223Z,8.90
2017-03-30T03:02:20.963Z,8.90
2017-03-30T03:03:19.360Z,9.00
2017-03-30T03:04:17.531Z,9.10
2017-03-30T03:05:15.676Z,9.00
2017-03-30T03:06:13.995Z,8.90
2017-03-30T03:07:11.663Z,8.90
2017-03-30T03:08:10.336Z,9.00
2017-03-30T03:09:08.155Z,8.90
2017-03-30T03:10:06.613Z,9.00
2017-03-30T03:11:04.277Z,9.00
2017-03-30T03:12:01.927Z,9.00
2017-03-30T03:12:59.533Z,9.10
2017-03-30T03:13:57.213Z,9.00
2017-03-30T03:14:54.810Z,9.10
2017-03-30T03:15:53.619Z,9.20
2017-03-30T03:16:51.260Z,9.30
2017-03-30T03:17:48.895Z,9.30
2017-03-30T03:18:46.509Z,9.30
2017-03-30T03:19:44.363Z,9.30
2017-03-30T03:20:42.028Z,9.40
2017-03-30T03:21:39.643Z,9.40
2017-03-30T03:22:37.295Z,9.40
2017-03-30T03:23:34.972Z,9.30
2017-03-30T03:24:32.607Z,9.30
2017-03-30T03:25:30.745Z,9.20
2017-03-30T03:26:28.384Z,9.20
2017-03-30T03:27:26.312Z,9.30
2017-03-30T03:28:24.125Z,9.30
2017-03-30T03:29:22.840Z,9.30
2017-03-30T03:30:20.703Z,9.30
2017-03-30T03:31:18.404Z,9.30
2017-03-30T03:32:16.024Z,9.30
2017-03-30T03:33:13.651Z,9.30
2017-03-30T03:34:12.025Z,9.30
2017-03-30T03:35:10.482Z,9.30
2017-03-30T03:36:08.293Z,9.30
2017-03-30T03:37:06.132Z,9.20
2017-03-30T03:38:03.971Z,9.20
2017-03-30T03:39:01.703Z,9.20
2017-03-30T03:39:59.455Z,9.30
2017-03-30T03:40:57.323Z,9.30
2017-03-30T03:41:54.967Z,9.30
2017-03-30T03:42:52.785Z,9.30
2017-03-30T03:43:50.576Z,9.30
2017-03-30T03:44:48.340Z,9.40
2017-03-30T03:45:47.005Z,9.40
2017-03-30T03:46:44.759Z,9.40
2017-03-30T03:47:42.499Z,9.40
2017-03-30T03:48:40.125Z,9.40
2017-03-30T03:49:37.748Z,9.40
2017-03-30T03:50:35.467Z,9.20
2017-03-30T03:51:33.183Z,9.30
2017-03-30T03:52:30.859Z,9.20
2017-03-30T03:53:28.675Z,9.20
2017-03-30T03:54:26.276Z,9.20
2017-03-30T03:55:24.180Z,9.20
2017-03-30T03:56:21.868Z,9.20
2017-03-30T03:57:19.744Z,9.10
2017-03-30T03:58:17.428Z,9.00
2017-03-30T03:59:15.049Z,9.10
2017-03-30T04:00:12.887Z,9.10
2017-03-30T04:01:10.621Z,9.00
2017-03-30T04:02:08.328Z,9.00
2017-03-30T04:03:05.996Z,9.00
2017-03-30T04:04:03.640Z,9.00
2017-03-30T04:05:01.755Z,9.00
2017-03-30T04:05:59.463Z,9.00
2017-03-30T04:06:58.091Z,9.00
2017-03-30T04:07:56.055Z,8.90
2017-03-30T04:08:53.635Z,8.90
2017-03-30T04:09:51.335Z,9.00
2017-03-30T04:10:49.072Z,9.10
2017-03-30T04:11:46.671Z,9.10
2017-03-30T04:12:45.239Z,9.00
2017-03-30T04:13:42.920Z,9.00
2017-03-30T04:14:41.456Z,8.90
2017-03-30T04:15:39.401Z,8.80
2017-03-30T04:16:40.159Z,8.70
2017-03-30T04:17:37.908Z,8.80
2017-03-30T04:18:35.543Z,8.80
2017-03-30T04:19:33.182Z,8.80
2017-03-30T04:20:31.042Z,8.80
2017-03-30T04:21:30.014Z,8.80
2017-03-30T04:22:27.851Z,8.80
2017-03-30T04:23:25.476Z,8.80
2017-03-30T04:24:23.210Z,8.90
2017-03-30T04:25:20.972Z,8.90
2017-03-30T04:26:18.648Z,9.00
2017-03-30T04:27:16.280Z,9.00
2017-03-30T04:28:14.905Z,9.10
2017-03-30T04:29:12.744Z,9.10
2017-03-30T04:30:10.867Z,9.10
2017-03-30T04:31:09.201Z,9.10
2017-03-30T04:32:07.075Z,9.10
2017-03-30T04:33:04.687Z,9.00
2017-03-30T04:34:02.301Z,9.00
2017-03-30T04:34:59.919Z,9.00
2017-03-30T04:35:58.252Z,9.00
2017-03-30T04:36:56.063Z,9.00
2017-03-30T04:37:53.808Z,9.10
2017-03-30T04:38:51.715Z,9.10
2017-03-30T04:39:49.283Z,9.10
2017-03-30T04:40:46.940Z,9.10
2017-03-30T04:41:44.787Z,9.20
2017-03-30T04:42:42.372Z,9.20
2017-03-30T04:43:40.132Z,9.10
2017-03-30T04:44:37.962Z,9.10
2017-03-30T04:45:35.632Z,9.10
2017-03-30T04:46:33.932Z,9.10
2017-03-30T04:47:31.560Z,9.00
2017-03-30T04:48:29.393Z,9.00
2017-03-30T04:49:26.995Z,8.90
2017-03-30T04:50:24.635Z,8.90
2017-03-30T04:51:23.952Z,8.70
2017-03-30T04:52:21.565Z,8.50
2017-03-30T04:53:19.562Z,8.50
2017-03-30T04:54:17.128Z,8.40
2017-03-30T04:55:15.176Z,8.50
2017-03-30T04:56:12.796Z,8.50
2017-03-30T04:57:10.439Z,8.60
2017-03-30T04:58:08.100Z,8.50
2017-03-30T04:59:05.899Z,8.60
2017-03-30T05:00:03.636Z,8.40
2017-03-30T05:01:01.573Z,8.30
2017-03-30T05:01:59.495Z,8.30
2017-03-30T05:02:57.144Z,8.30
2017-03-30T05:03:54.889Z,8.30
2017-03-30T05:04:52.720Z,8.20
2017-03-30T05:05:50.440Z,8.20
2017-03-30T05:06:48.083Z,8.10
2017-03-30T05:07:46.183Z,8.10
2017-03-30T05:08:43.879Z,8.20
2017-03-30T05:09:41.496Z,8.20
2017-03-30T05:10:39.795Z,8.20
2017-03-30T05:11:37.451Z,8.30
2017-03-30T05:12:35.032Z,8.40
2017-03-30T05:13:32.799Z,8.40
2017-03-30T05:14:30.401Z,8.40
2017-03-30T05:15:28.617Z,8.30
2017-03-30T05:16:26.297Z,8.30
2017-03-30T05:17:24.135Z,8.30
2017-03-30T05:18:21.809Z,8.30
2017-03-30T05:19:19.419Z,8.30
2017-03-30T05:20:17.309Z,8.40
2017-03-30T05:21:15.127Z,8.50
2017-03-30T05:22:12.962Z,8.50
2017-03-30T05:23:10.658Z,8.50
2017-03-30T05:24:08.319Z,8.50
2017-03-30T05:25:06.068Z,8.50
2017-03-30T05:26:03.856Z,8.50
2017-03-30T05:27:01.439Z,8.50
2017-03-30T05:27:59.027Z,8.50
2017-03-30T05:28:56.655Z,8.60
2017-03-30T05:29:56.020Z,8.60
2017-03-30T05:30:54.280Z,8.60
2017-03-30T05:31:52.520Z,8.50
2017-03-30T05:32:50.161Z,8.40
2017-03-30T05:33:48.052Z,8.30
2017-03-30T05:34:45.871Z,8.30
2017-03-30T05:35:44.046Z,8.30
2017-03-30T05:36:42.888Z,8.30
2017-03-30T05:37:40.639Z,8.30
2017-03-30T05:38:41.393Z,8.30
2017-03-30T05:39:39.168Z,8.40
2017-03-30T05:40:37.547Z,8.50
2017-03-30T05:41:36.076Z,8.50
2017-03-30T05:42:34.320Z,8.60
2017-03-30T05:43:31.931Z,8.50
2017-03-30T05:44:29.572Z,8.50
2017-03-30T05:45:27.799Z,8.50
2017-03-30T05:46:26.420Z,8.50
2017-03-30T05:47:25.064Z,8.40
2017-03-30T05:48:23.154Z,8.50
2017-03-30T05:49:21.119Z,8.50
2017-03-30T05:50:18.887Z,8.40
2017-03-30T05:51:16.697Z,8.40
2017-03-30T05:52:14.505Z,8.20
2017-03-30T05:53:12.213Z,8.00
2017-03-30T05:54:09.996Z,8.00
2017-03-30T05:55:09.021Z,7.90
2017-03-30T05:56:06.664Z,7.90
2017-03-30T05:57:04.281Z,7.90
2017-03-30T05:58:02.002Z,7.90
2017-03-30T05:58:59.588Z,7.90
2017-03-30T05:59:57.200Z,8.10
2017-03-30T06:00:55.265Z,8.30
2017-03-30T06:01:52.893Z,8.30
2017-03-30T06:02:50.515Z,8.30
2017-03-30T06:03:48.372Z,8.40
2017-03-30T06:04:47.108Z,8.50
2017-03-30T06:05:44.860Z,8.60
2017-03-30T06:06:42.568Z,8.70
2017-03-30T06:07:40.178Z,8.90
2017-03-30T06:08:37.788Z,9.00
2017-03-30T06:09:35.379Z,9.20
2017-03-30T06:10:34.371Z,9.20
2017-03-30T06:11:31.935Z,9.30
2017-03-30T06:12:29.543Z,9.30
2017-03-30T06:13:27.181Z,9.10
2017-03-30T06:14:24.788Z,9.10
2017-03-30T06:15:22.508Z,9.10
2017-03-30T06:16:20.156Z,9.20
2017-03-30T06:17:17.951Z,9.30
2017-03-30T06:18:16.002Z,9.30
2017-03-30T06:19:13.687Z,9.50
2017-03-30T06:20:12.378Z,9.40
2017-03-30T06:21:10.217Z,9.40
2017-03-30T06:22:08.391Z,9.60
2017-03-30T06:23:06.368Z,9.60
2017-03-30T06:24:04.005Z,9.70
2017-03-30T06:25:01.685Z,9.90
2017-03-30T06:26:00.501Z,10.10
2017-03-30T06:26:58.227Z,10.20
2017-03-30T06:27:57.376Z,10.30
2017-03-30T06:28:56.352Z,10.30
2017-03-30T06:29:54.120Z,10.30
2017-03-30T06:30:52.376Z,10.30
2017-03-30T06:31:49.987Z,10.40
2017-03-30T06:32:48.236Z,10.50
2017-03-30T06:33:48.027Z,10.50
2017-03-30T06:34:45.798Z,10.60
2017-03-30T06:35:43.523Z,10.60
2017-03-30T06:36:42.104Z,10.60
2017-03-30T06:37:39.960Z,10.70
2017-03-30T06:38:37.763Z,10.60
2017-03-30T06:39:35.947Z,10.60
2017-03-30T06:40:33.675Z,10.60
2017-03-30T06:41:32.114Z,10.50
2017-03-30T06:42:29.778Z,10.40
2017-03-30T06:43:27.532Z,10.30
2017-03-30T06:44:25.311Z,10.40
2017-03-30T06:45:23.485Z,10.60
2017-03-30T06:46:21.179Z,10.70
2017-03-30T06:47:18.795Z,10.80
2017-03-30T06:48:16.678Z,10.80
2017-03-30T06:49:14.303Z,10.80
2017-03-30T06:50:11.983Z,10.80
2017-03-30T06:51:09.681Z,10.90
2017-03-30T06:52:07.308Z,10.90
2017-03-30T06:53:05.772Z,11.00
2017-03-30T06:54:03.731Z,11.00
2017-03-30T06:55:01.360Z,11.00
2017-03-30T06:55:59.760Z,11.10
2017-03-30T06:56:58.558Z,11.00
2017-03-30T06:57:56.196Z,11.10
2017-03-30T06:58:53.932Z,11.20
2017-03-30T06:59:51.566Z,11.00
2017-03-30T07:00:49.512Z,11.00
2017-03-30T07:01:47.923Z,11.10
2017-03-30T07:02:45.759Z,11.20
2017-03-30T07:03:43.375Z,11.30
2017-03-30T07:04:41.152Z,11.10
2017-03-30T07:05:39.060Z,11.20
2017-03-30T07:06:36.787Z,11.30
2017-03-30T07:07:34.826Z,11.20
2017-03-30T07:08:32.572Z,11.20
2017-03-30T07:09:30.228Z,11.10
2017-03-30T07:10:28.232Z,11.20
2017-03-30T07:11:25.943Z,11.30
2017-03-30T07:12:24.813Z,11.40
2017-03-30T07:13:22.607Z,11.50
2017-03-30T07:14:20.351Z,11.50
2017-03-30T07:15:18.232Z,11.50
2017-03-30T07:16:16.249Z,11.50
2017-03-30T07:17:13.908Z,11.50
2017-03-30T07:18:12.242Z,11.60
2017-03-30T07:19:09.937Z,11.70
2017-03-30T07:20:07.812Z,11.70
2017-03-30T07:21:06.408Z,11.70
2017-03-30T07:22:04.220Z,11.70
2017-03-30T07:23:02.093Z,11.70
2017-03-30T07:23:59.918Z,11.70
2017-03-30T07:24:57.543Z,11.70
2017-03-30T07:25:55.704Z,11.60
2017-03-30T07:26:54.172Z,11.60
2017-03-30T07:27:52.051Z,11.70
2017-03-30T07:28:49.678Z,11.80
2017-03-30T07:29:47.305Z,11.90
2017-03-30T07:30:45.008Z,11.90
2017-03-30T07:31:43.255Z,11.90
2017-03-30T07:32:40.931Z,12.10
2017-03-30T07:33:38.571Z,12.10
2017-03-30T07:34:36.200Z,12.10
2017-03-30T07:35:33.895Z,12.20
2017-03-30T07:36:31.524Z,12.20
2017-03-30T07:37:29.360Z,12.30
2017-03-30T07:38:26.968Z,12.30
2017-03-30T07:39:24.593Z,12.40
2017-03-30T07:40:22.767Z,12.40
2017-03-30T07:41:20.560Z,12.40
2017-03-30T07:42:18.469Z,12.50
2017-03-30T07:43:19.744Z,12.50
2017-03-30T07:44:17.584Z,12.60
2017-03-30T07:45:15.580Z,12.60
2017-03-30T07:46:13.400Z,12.70
2017-03-30T07:47:11.056Z,12.80
2017-03-30T07:48:09.244Z,12.90
2017-03-30T07:49:06.923Z,13.00
2017-03-30T07:50:05.145Z,13.00
2017-03-30T07:51:03.453Z,13.10
2017-03-30T07:52:01.125Z,13.10
2017-03-30T07:52:59.218Z,13.10
2017-03-30T07:53:56.822Z,13.20
2017-03-30T07:54:54.625Z,13.20
2017-03-30T07:55:52.402Z,13.20
2017-03-30T07:56:50.388Z,13.30
2017-03-30T07:57:48.752Z,13.40
2017-03-30T07:58:46.389Z,13.40
2017-03-30T07:59:44.000Z,13.40
2017-03-30T08:00:42.023Z,13.40
2017-03-30T08:01:39.640Z,13.50
2017-03-30T08:02:37.275Z,13.40
2017-03-30T08:03:34.920Z,13.50
2017-03-30T08:04:32.707Z,13.50
2017-03-30T08:05:30.448Z,13.60
2017-03-30T08:06:28.616Z,13.70
2017-03-30T08:07:26.839Z,13.80
2017-03-30T08:08:24.664Z,13.80
2017-03-30T08:09:22.468Z,13.80
2017-03-30T08:10:20.244Z,13.80
2017-03-30T08:11:17.854Z,14.00
2017-03-30T08:12:15.500Z,14.10
2017-03-30T08:13:14.188Z,14.10
2017-03-30T08:14:12.552Z,14.30
2017-03-30T08:15:10.325Z,14.40
2017-03-30T08:16:07.987Z,14.40
2017-03-30T08:17:05.831Z,14.30
2017-03-30T08:18:03.508Z,14.40
2017-03-30T08:19:01.310Z,14.50
2017-03-30T08:19:58.923Z,14.60
2017-03-30T08:20:56.900Z,14.70
2017-03-30T08:21:54.500Z,14.80
2017-03-30T08:22:52.187Z,14.90
2017-03-30T08:23:49.824Z,14.90
2017-03-30T08:24:47.563Z,15.10
2017-03-30T08:25:45.893Z,15.20
2017-03-30T08:26:44.157Z,15.30
2017-03-30T08:27:41.739Z,15.40
2017-03-30T08:28:39.423Z,15.30
2017-03-30T08:29:37.340Z,15.40
2017-03-30T08:30:35.460Z,15.40
2017-03-30T08:31:33.387Z,15.40
2017-03-30T08:32:31.050Z,15.40
2017-03-30T08:33:28.671Z,15.40
2017-03-30T08:34:26.304Z,15.50
2017-03-30T08:35:24.176Z,15.60
2017-03-30T08:36:22.041Z,15.50
2017-03-30T08:37:19.792Z,15.60
2017-03-30T08:38:17.423Z,15.60
2017-03-30T08:39:15.139Z,15.80
2017-03-30T08:40:13.600Z,15.80
2017-03-30T08:41:11.227Z,15.90
2017-03-30T08:42:08.903Z,16.00
2017-03-30T08:43:06.812Z,16.10
2017-03-30T08:44:04.415Z,16.20
2017-03-30T08:45:04.020Z,16.30
2017-03-30T08:46:01.767Z,16.40
2017-03-30T08:46:59.375Z,16.30
2017-03-30T08:47:57.284Z,16.40
2017-03-30T08:48:55.083Z,16.40
2017-03-30T08:49:52.719Z,16.50
2017-03-30T08:50:50.439Z,16.50
2017-03-30T08:51:48.071Z,16.50
2017-03-30T08:52:45.752Z,16.60
2017-03-30T08:53:43.912Z,16.60
2017-03-30T08:54:41.552Z,16.60
2017-03-30T08:55:39.460Z,16.70
2017-03-30T08:56:37.424Z,16.70
2017-03-30T08:57:35.070Z,16.80
2017-03-30T08:58:32.805Z,16.80
2017-03-30T08:59:30.918Z,16.80
2017-03-30T09:00:28.563Z,16.90
2017-03-30T09:01:26.232Z,17.00
2017-03-30T09:02:24.101Z,17.10
2017-03-30T09:03:21.790Z,17.20
2017-03-30T09:04:19.429Z,17.20
2017-03-30T09:05:17.564Z,17.20
2017-03-30T09:06:15.268Z,17.20
2017-03-30T09:07:12.884Z,17.20
2017-03-30T09:08:10.564Z,17.10
2017-03-30T09:09:08.412Z,17.10
2017-03-30T09:10:06.404Z,17.10
2017-03-30T09:11:04.144Z,17.10
2017-03-30T09:12:01.763Z,17.10
2017-03-30T09:12:59.729Z,17.20
2017-03-30T09:13:57.403Z,17.30
2017-03-30T09:14:55.092Z,17.30
2017-03-30T09:15:52.988Z,17.40
2017-03-30T09:16:51.140Z,17.50
2017-03-30T09:17:48.732Z,17.40
2017-03-30T09:18:46.416Z,17.40
2017-03-30T09:19:44.075Z,17.50
2017-03-30T09:20:41.798Z,17.50
2017-03-30T09:21:39.384Z,17.50
2017-03-30T09:22:37.264Z,17.50
2017-03-30T09:23:35.170Z,17.50
2017-03-30T09:24:32.805Z,17.60
2017-03-30T09:25:30.600Z,17.70
2017-03-30T09:26:28.411Z,17.70
2017-03-30T09:27:26.061Z,17.80
2017-03-30T09:28:23.743Z,17.90
2017-03-30T09:29:21.396Z,18.00
2017-03-30T09:30:19.400Z,18.00
2017-03-30T09:31:17.184Z,18.10
2017-03-30T09:32:14.828Z,18.10
2017-03-30T09:33:12.437Z,18.10
2017-03-30T09:34:10.084Z,18.20
2017-03-30T09:35:08.404Z,18.30
2017-03-30T09:36:06.100Z,18.30
2017-03-30T09:37:03.767Z,18.30
2017-03-30T09:38:01.567Z,18.40
2017-03-30T09:38:59.222Z,18.40
2017-03-30T09:39:56.827Z,18.40
2017-03-30T09:40:54.692Z,18.40
2017-03-30T09:41:52.476Z,18.40
2017-03-30T09:42:50.302Z,18.50
2017-03-30T09:43:47.948Z,18.50
2017-03-30T09:44:45.627Z,18.50
2017-03-30T09:45:43.658Z,18.60
2017-03-30T09:46:42.434Z,18.60
2017-03-30T09:47:40.141Z,18.70
2017-03-30T09:48:37.880Z,18.70
2017-03-30T09:49:35.736Z,18.80
2017-03-30T09:50:33.480Z,18.80
2017-03-30T09:51:31.564Z,18.80
2017-03-30T09:52:29.391Z,18.90
2017-03-30T09:53:27.123Z,19.00
2017-03-30T09:54:24.736Z,19.00
2017-03-30T09:55:22.711Z,19.10
2017-03-30T09:56:20.631Z,19.20
2017-03-30T09:57:18.317Z,19.30
2017-03-30T09:58:15.952Z,19.40
2017-03-30T09:59:13.891Z,19.40
2017-03-30T10:00:11.896Z,19.50
2017-03-30T10:01:10.105Z,19.50
2017-03-30T10:02:07.754Z,19.50
2017-03-30T10:03:05.401Z,19.50
2017-03-30T10:04:03.150Z,19.60
2017-03-30T10:05:01.176Z,19.80
2017-03-30T10:05:58.871Z,20.00
2017-03-30T10:06:56.644Z,20.00
2017-03-30T10:07:54.363Z,20.00
2017-03-30T10:08:51.995Z,20.20
2017-03-30T10:09:49.648Z,20.30
2017-03-30T10:10:47.696Z,20.30
2017-03-30T10:11:45.377Z,20.40
2017-03-30T10:12:43.264Z,20.60
2017-03-30T10:13:41.116Z,20.70
2017-03-30T10:14:39.047Z,20.70
2017-03-30T10:15:36.751Z,20.70
2017-03-30T10:16:34.692Z,20.70
2017-03-30T10:17:32.334Z,20.70
2017-03-30T10:18:29.969Z,20.80
2017-03-30T10:19:27.608Z,20.90
2017-03-30T10:20:25.360Z,21.00
2017-03-30T10:21:23.247Z,21.00
2017-03-30T10:22:21.035Z,21.00
2017-03-30T10:23:18.927Z,21.20
2017-03-30T10:24:17.332Z,21.30
2017-03-30T10:25:15.036Z,21.30
2017-03-30T10:26:12.764Z,21.40
2017-03-30T10:27:10.372Z,21.60
2017-03-30T10:28:08.194Z,21.70
2017-03-30T10:29:05.803Z,21.90
2017-03-30T10:30:03.584Z,22.00
2017-03-30T10:31:02.310Z,21.90
2017-03-30T10:31:59.932Z,22.00
2017-03-30T10:32:58.358Z,22.10
2017-03-30T10:33:56.829Z,22.20
2017-03-30T10:34:54.457Z,22.50
2017-03-30T10:35:52.188Z,23.00
2017-03-30T10:36:49.860Z,23.70
2017-03-30T10:37:47.607Z,24.40
2017-03-30T10:38:45.294Z,25.40
2017-03-30T10:39:43.896Z,26.50
2017-03-30T10:40:42.639Z,27.30
2017-03-30T10:41:41.093Z,27.90
2017-03-30T10:42:38.711Z,28.60
2017-03-30T10:43:36.329Z,29.20
2017-03-30T10:44:33.968Z,29.60
2017-03-30T10:45:32.161Z,30.10
2017-03-30T10:46:29.807Z,30.70
2017-03-30T10:47:27.473Z,31.10
2017-03-30T10:48:25.352Z,31.70
2017-03-30T10:49:23.134Z,32.30
2017-03-30T10:50:21.111Z,32.60
2017-03-30T10:51:18.713Z,32.50
2017-03-30T10:52:17.083Z,32.50
2017-03-30T10:53:14.693Z,32.30
2017-03-30T10:54:12.355Z,32.80
2017-03-30T10:55:10.525Z,33.70
2017-03-30T10:56:08.213Z,34.40
2017-03-30T10:57:05.880Z,34.90
2017-03-30T10:58:03.558Z,35.50
2017-03-30T10:59:01.176Z,36.00
2017-03-30T10:59:58.792Z,36.40
2017-03-30T11:00:56.820Z,36.90
2017-03-30T11:01:54.485Z,37.40
2017-03-30T11:02:52.139Z,38.10
2017-03-30T11:03:49.777Z,38.70
2017-03-30T11:04:47.399Z,39.40
2017-03-30T11:05:45.072Z,40.10
2017-03-30T11:06:43.160Z,40.60
2017-03-30T11:07:40.819Z,41.10
2017-03-30T11:08:38.427Z,41.40
2017-03-30T11:09:36.113Z,41.60
2017-03-30T11:10:33.791Z,41.80
2017-03-30T11:11:31.415Z,41.60
2017-03-30T11:12:29.484Z,40.80
2017-03-30T11:13:27.131Z,40.30
2017-03-30T11:14:25.004Z,40.20
2017-03-30T11:15:23.148Z,40.40
2017-03-30T11:16:20.826Z,40.10
2017-03-30T11:17:18.508Z,40.20
2017-03-30T11:18:16.140Z,40.20
2017-03-30T11:19:14.778Z,40.50
2017-03-30T11:20:12.529Z,41.00
2017-03-30T11:21:10.161Z,41.00
2017-03-30T11:22:07.860Z,40.30
2017-03-30T11:23:05.516Z,39.80
2017-03-30T11:24:03.296Z,40.00
2017-03-30T11:25:01.355Z,40.40
2017-03-30T11:25:59.261Z,41.10
2017-03-30T11:26:56.891Z,41.40
2017-03-30T11:27:54.499Z,41.60
2017-03-30T11:28:52.127Z,41.90
2017-03-30T11:29:49.762Z,42.50
2017-03-30T11:30:47.736Z,43.00
2017-03-30T11:31:45.404Z,43.00
2017-03-30T11:32:43.061Z,43.50
2017-03-30T11:33:40.673Z,43.60
2017-03-30T11:34:38.283Z,43.90
2017-03-30T11:35:36.152Z,44.40
2017-03-30T11:36:33.823Z,45.20
2017-03-30T11:37:31.463Z,46.00
2017-03-30T11:38:29.095Z,46.70
2017-03-30T11:39:26.779Z,47.20
2017-03-30T11:40:24.470Z,47.40
2017-03-30T11:41:22.176Z,47.90
2017-03-30T11:42:20.128Z,48.20
2017-03-30T11:43:17.803Z,48.30
2017-03-30T11:44:15.466Z,48.80
2017-03-30T11:45:13.213Z,49.20
2017-03-30T11:46:11.124Z,49.60
2017-03-30T11:47:08.777Z,49.60
2017-03-30T11:48:06.407Z,49.80
2017-03-30T11:49:04.035Z,49.30
2017-03-30T11:50:02.034Z,49.00
2017-03-30T11:50:59.699Z,48.80
2017-03-30T11:51:57.392Z,48.60
2017-03-30T11:52:55.986Z,48.70
2017-03-30T11:53:53.908Z,48.40
2017-03-30T11:54:51.581Z,48.60
2017-03-30T11:55:49.840Z,48.90
2017-03-30T11:56:48.433Z,49.10
2017-03-30T11:57:46.049Z,48.90
2017-03-30T11:58:43.717Z,49.10
2017-03-30T11:59:41.378Z,49.20
2017-03-30T12:00:39.161Z,49.60
2017-03-30T12:01:37.179Z,50.00
2017-03-30T12:02:34.810Z,50.30
2017-03-30T12:03:32.447Z,50.50
2017-03-30T12:04:30.707Z,50.20
2017-03-30T12:05:28.433Z,50.20
2017-03-30T12:06:26.103Z,50.10
2017-03-30T12:07:24.122Z,50.10
2017-03-30T12:08:22.733Z,50.50
2017-03-30T12:09:21.388Z,49.50
2017-03-30T12:10:19.102Z,48.30
2017-03-30T12:11:16.749Z,48.00
2017-03-30T12:12:14.423Z,48.40
2017-03-30T12:13:12.493Z,48.90
2017-03-30T12:14:10.140Z,49.10
2017-03-30T12:15:07.795Z,49.50
2017-03-30T12:16:05.500Z,49.70
2017-03-30T12:17:03.186Z,49.50
2017-03-30T12:18:00.899Z,49.80
2017-03-30T12:18:59.004Z,50.30
2017-03-30T12:19:56.636Z,50.90
2017-03-30T12:20:54.355Z,51.30
2017-03-30T12:21:52.941Z,51.10
2017-03-30T12:22:50.615Z,50.80
2017-03-30T12:23:48.252Z,50.40
2017-03-30T12:24:46.813Z,50.50
2017-03-30T12:25:45.171Z,50.50
2017-03-30T12:26:42.813Z,50.20
2017-03-30T12:27:40.488Z,50.00
2017-03-30T12:28:38.220Z,49.30
2017-03-30T12:29:35.909Z,49.30
2017-03-30T12:30:33.936Z,49.50
2017-03-30T12:31:33.862Z,49.80
2017-03-30T12:32:32.359Z,49.80
2017-03-30T12:33:31.090Z,49.60
2017-03-30T12:34:35.637Z,50.00
2017-03-30T12:35:33.608Z,49.90
2017-03-30T12:36:32.516Z,49.30
2017-03-30T12:37:30.224Z,48.60
2017-03-30T12:38:28.114Z,48.10
2017-03-30T12:39:25.862Z,48.00
2017-03-30T12:40:24.130Z,47.80
2017-03-30T12:41:21.984Z,48.10
2017-03-30T12:42:19.793Z,48.10
2017-03-30T12:43:17.595Z,48.50
2017-03-30T12:44:16.457Z,48.80